sensor_id;sensor_type;location;lat;lon;timestamp;P1;durP1;ratioP1;P2;durP2;ratioP2
60006;SDS011;45863;50.336;3.536;2022-12-29T00:01:24;6.53;;;1.90;;
60006;SDS011;45863;50.336;3.536;2022-12-29T00:03:49;6.50;;;1.73;;
60006;SDS011;45863;50.336;3.536;2022-12-29T00:06:15;5.63;;;1.13;;
60006;SDS011;45863;50.336;3.536;2022-12-29T00:08:40;4.65;;;1.40;;
60006;SDS011;45863;50.336;3.536;2022-12-29T00:11:06;4.30;;;1.77;;
60006;SDS011;45863;50.336;3.536;2022-12-29T00:13:32;8.70;;;1.75;;
60006;SDS011;45863;50.336;3.536;2022-12-29T00:16:16;5.93;;;1.70;;
60006;SDS011;45863;50.336;3.536;2022-12-29T00:18:41;6.07;;;1.40;;
60006;SDS011;45863;50.336;3.536;2022-12-29T00:21:07;5.20;;;2.03;;
60006;SDS011;45863;50.336;3.536;2022-12-29T00:23:51;6.85;;;1.67;;
60006;SDS011;45863;50.336;3.536;2022-12-29T00:26:35;9.13;;;1.60;;
60006;SDS011;45863;50.336;3.536;2022-12-29T00:29:19;8.15;;;1.30;;
60006;SDS011;45863;50.336;3.536;2022-12-29T00:32:03;7.00;;;1.67;;
60006;SDS011;45863;50.336;3.536;2022-12-29T00:34:47;9.85;;;1.63;;
60006;SDS011;45863;50.336;3.536;2022-12-29T00:37:31;5.30;;;1.38;;
60006;SDS011;45863;50.336;3.536;2022-12-29T00:40:15;6.80;;;1.40;;
60006;SDS011;45863;50.336;3.536;2022-12-29T00:42:59;6.00;;;1.20;;
60006;SDS011;45863;50.336;3.536;2022-12-29T00:45:43;7.40;;;1.63;;
60006;SDS011;45863;50.336;3.536;2022-12-29T00:48:08;7.95;;;1.95;;
60006;SDS011;45863;50.336;3.536;2022-12-29T00:50:33;6.75;;;2.10;;
60006;SDS011;45863;50.336;3.536;2022-12-29T00:52:59;7.60;;;2.00;;
60006;SDS011;45863;50.336;3.536;2022-12-29T00:55:24;7.67;;;1.73;;
60006;SDS011;45863;50.336;3.536;2022-12-29T00:57:49;5.00;;;1.63;;
60006;SDS011;45863;50.336;3.536;2022-12-29T01:00:14;7.40;;;1.88;;
60006;SDS011;45863;50.336;3.536;2022-12-29T01:02:40;8.40;;;1.65;;
60006;SDS011;45863;50.336;3.536;2022-12-29T01:05:05;7.35;;;1.67;;
60006;SDS011;45863;50.336;3.536;2022-12-29T01:07:30;9.35;;;1.92;;
60006;SDS011;45863;50.336;3.536;2022-12-29T01:09:55;7.15;;;1.80;;
60006;SDS011;45863;50.336;3.536;2022-12-29T01:12:35;7.45;;;1.85;;
60006;SDS011;45863;50.336;3.536;2022-12-29T01:15:07;6.53;;;1.95;;
60006;SDS011;45863;50.336;3.536;2022-12-29T01:17:33;6.95;;;1.90;;
60006;SDS011;45863;50.336;3.536;2022-12-29T01:19:59;6.25;;;1.75;;
60006;SDS011;45863;50.336;3.536;2022-12-29T01:22:24;7.07;;;2.05;;
60006;SDS011;45863;50.336;3.536;2022-12-29T01:24:49;7.13;;;1.95;;
60006;SDS011;45863;50.336;3.536;2022-12-29T01:27:14;6.65;;;1.92;;
60006;SDS011;45863;50.336;3.536;2022-12-29T01:29:40;6.60;;;2.00;;
60006;SDS011;45863;50.336;3.536;2022-12-29T01:32:05;5.38;;;1.77;;
60006;SDS011;45863;50.336;3.536;2022-12-29T01:34:30;5.85;;;1.80;;
60006;SDS011;45863;50.336;3.536;2022-12-29T01:36:55;6.27;;;1.83;;
60006;SDS011;45863;50.336;3.536;2022-12-29T01:39:21;7.07;;;2.05;;
60006;SDS011;45863;50.336;3.536;2022-12-29T01:41:46;5.75;;;1.88;;
60006;SDS011;45863;50.336;3.536;2022-12-29T01:46:55;8.98;;;1.67;;
60006;SDS011;45863;50.336;3.536;2022-12-29T01:49:21;6.85;;;1.77;;
60006;SDS011;45863;50.336;3.536;2022-12-29T01:51:49;4.60;;;1.70;;
60006;SDS011;45863;50.336;3.536;2022-12-29T01:54:21;8.70;;;1.90;;
60006;SDS011;45863;50.336;3.536;2022-12-29T01:56:47;4.57;;;1.45;;
60006;SDS011;45863;50.336;3.536;2022-12-29T01:59:15;3.15;;;1.42;;
60006;SDS011;45863;50.336;3.536;2022-12-29T02:01:41;4.20;;;1.80;;
60006;SDS011;45863;50.336;3.536;2022-12-29T02:04:07;6.80;;;1.67;;
60006;SDS011;45863;50.336;3.536;2022-12-29T02:06:36;5.72;;;2.08;;
60006;SDS011;45863;50.336;3.536;2022-12-29T02:09:03;4.35;;;2.00;;
60006;SDS011;45863;50.336;3.536;2022-12-29T02:11:28;3.67;;;1.33;;
60006;SDS011;45863;50.336;3.536;2022-12-29T02:13:54;5.97;;;1.42;;
60006;SDS011;45863;50.336;3.536;2022-12-29T02:27:48;5.75;;;1.75;;
60006;SDS011;45863;50.336;3.536;2022-12-29T02:37:11;8.53;;;1.87;;
60006;SDS011;45863;50.336;3.536;2022-12-29T02:39:43;12.52;;;1.90;;
60006;SDS011;45863;50.336;3.536;2022-12-29T02:44:56;4.88;;;1.70;;
60006;SDS011;45863;50.336;3.536;2022-12-29T02:47:30;7.75;;;1.52;;
60006;SDS011;45863;50.336;3.536;2022-12-29T02:52:39;5.57;;;1.30;;
60006;SDS011;45863;50.336;3.536;2022-12-29T02:55:08;9.00;;;1.48;;
60006;SDS011;45863;50.336;3.536;2022-12-29T02:57:34;7.68;;;1.55;;
60006;SDS011;45863;50.336;3.536;2022-12-29T03:00:07;7.13;;;1.35;;
60006;SDS011;45863;50.336;3.536;2022-12-29T03:02:44;7.32;;;1.60;;
60006;SDS011;45863;50.336;3.536;2022-12-29T03:12:46;6.00;;;1.58;;
60006;SDS011;45863;50.336;3.536;2022-12-29T03:15:51;9.50;;;1.30;;
60006;SDS011;45863;50.336;3.536;2022-12-29T03:21:01;5.57;;;1.70;;
60006;SDS011;45863;50.336;3.536;2022-12-29T03:23:27;10.82;;;1.58;;
60006;SDS011;45863;50.336;3.536;2022-12-29T03:25:55;7.55;;;1.48;;
60006;SDS011;45863;50.336;3.536;2022-12-29T03:28:35;11.80;;;2.08;;
60006;SDS011;45863;50.336;3.536;2022-12-29T03:31:01;7.60;;;1.90;;
60006;SDS011;45863;50.336;3.536;2022-12-29T03:33:28;12.50;;;2.05;;
60006;SDS011;45863;50.336;3.536;2022-12-29T03:35:56;9.55;;;1.60;;
60006;SDS011;45863;50.336;3.536;2022-12-29T03:38:33;11.55;;;2.17;;
60006;SDS011;45863;50.336;3.536;2022-12-29T03:40:59;8.35;;;1.38;;
60006;SDS011;45863;50.336;3.536;2022-12-29T03:43:26;11.82;;;2.30;;
60006;SDS011;45863;50.336;3.536;2022-12-29T03:45:52;10.20;;;2.15;;
60006;SDS011;45863;50.336;3.536;2022-12-29T03:48:17;8.70;;;1.52;;
60006;SDS011;45863;50.336;3.536;2022-12-29T03:50:43;12.90;;;1.55;;
60006;SDS011;45863;50.336;3.536;2022-12-29T03:53:08;9.50;;;1.90;;
60006;SDS011;45863;50.336;3.536;2022-12-29T03:55:33;8.27;;;1.42;;
60006;SDS011;45863;50.336;3.536;2022-12-29T03:57:58;14.48;;;2.08;;
60006;SDS011;45863;50.336;3.536;2022-12-29T04:00:24;8.43;;;1.73;;
60006;SDS011;45863;50.336;3.536;2022-12-29T04:02:49;8.23;;;2.03;;
60006;SDS011;45863;50.336;3.536;2022-12-29T04:05:14;11.23;;;2.50;;
60006;SDS011;45863;50.336;3.536;2022-12-29T04:07:39;8.18;;;1.58;;
60006;SDS011;45863;50.336;3.536;2022-12-29T04:10:05;11.77;;;2.17;;
60006;SDS011;45863;50.336;3.536;2022-12-29T04:12:30;10.18;;;1.83;;
60006;SDS011;45863;50.336;3.536;2022-12-29T04:14:55;8.20;;;1.48;;
60006;SDS011;45863;50.336;3.536;2022-12-29T04:17:21;7.95;;;1.73;;
60006;SDS011;45863;50.336;3.536;2022-12-29T04:19:46;12.20;;;2.00;;
60006;SDS011;45863;50.336;3.536;2022-12-29T04:22:11;13.93;;;2.20;;
60006;SDS011;45863;50.336;3.536;2022-12-29T04:24:37;14.95;;;2.00;;
60006;SDS011;45863;50.336;3.536;2022-12-29T04:27:02;11.52;;;2.70;;
60006;SDS011;45863;50.336;3.536;2022-12-29T04:29:27;12.10;;;2.63;;
60006;SDS011;45863;50.336;3.536;2022-12-29T04:31:52;13.60;;;2.25;;
60006;SDS011;45863;50.336;3.536;2022-12-29T04:34:18;12.73;;;2.15;;
60006;SDS011;45863;50.336;3.536;2022-12-29T04:36:43;6.40;;;1.60;;
60006;SDS011;45863;50.336;3.536;2022-12-29T04:39:08;11.73;;;2.22;;
60006;SDS011;45863;50.336;3.536;2022-12-29T04:41:33;16.10;;;1.90;;
60006;SDS011;45863;50.336;3.536;2022-12-29T04:43:59;11.88;;;2.47;;
60006;SDS011;45863;50.336;3.536;2022-12-29T04:46:24;13.15;;;2.00;;
60006;SDS011;45863;50.336;3.536;2022-12-29T04:48:49;8.75;;;2.28;;
60006;SDS011;45863;50.336;3.536;2022-12-29T04:51:15;12.02;;;2.00;;
60006;SDS011;45863;50.336;3.536;2022-12-29T04:53:40;10.85;;;1.65;;
60006;SDS011;45863;50.336;3.536;2022-12-29T04:56:05;12.00;;;2.30;;
60006;SDS011;45863;50.336;3.536;2022-12-29T04:58:30;9.55;;;2.15;;
60006;SDS011;45863;50.336;3.536;2022-12-29T05:00:56;11.45;;;1.70;;
60006;SDS011;45863;50.336;3.536;2022-12-29T05:03:21;9.48;;;2.53;;
60006;SDS011;45863;50.336;3.536;2022-12-29T05:05:46;11.35;;;2.25;;
60006;SDS011;45863;50.336;3.536;2022-12-29T05:08:11;15.30;;;2.78;;
60006;SDS011;45863;50.336;3.536;2022-12-29T05:10:36;11.48;;;2.42;;
60006;SDS011;45863;50.336;3.536;2022-12-29T05:13:02;13.38;;;2.55;;
60006;SDS011;45863;50.336;3.536;2022-12-29T05:15:27;14.52;;;2.70;;
60006;SDS011;45863;50.336;3.536;2022-12-29T05:17:53;10.10;;;1.75;;
60006;SDS011;45863;50.336;3.536;2022-12-29T05:20:18;15.32;;;2.33;;
60006;SDS011;45863;50.336;3.536;2022-12-29T05:22:43;14.73;;;2.53;;
60006;SDS011;45863;50.336;3.536;2022-12-29T05:25:09;8.60;;;2.58;;
60006;SDS011;45863;50.336;3.536;2022-12-29T05:27:34;13.07;;;2.25;;
60006;SDS011;45863;50.336;3.536;2022-12-29T05:29:59;10.88;;;2.67;;
60006;SDS011;45863;50.336;3.536;2022-12-29T05:32:25;12.27;;;2.05;;
60006;SDS011;45863;50.336;3.536;2022-12-29T05:34:50;10.32;;;3.05;;
60006;SDS011;45863;50.336;3.536;2022-12-29T05:37:15;21.15;;;3.10;;
60006;SDS011;45863;50.336;3.536;2022-12-29T05:39:40;10.70;;;1.92;;
60006;SDS011;45863;50.336;3.536;2022-12-29T05:42:05;9.13;;;2.22;;
60006;SDS011;45863;50.336;3.536;2022-12-29T05:44:31;9.98;;;2.72;;
60006;SDS011;45863;50.336;3.536;2022-12-29T05:46:56;20.13;;;2.80;;
60006;SDS011;45863;50.336;3.536;2022-12-29T05:49:21;14.75;;;2.72;;
60006;SDS011;45863;50.336;3.536;2022-12-29T05:51:46;14.50;;;2.58;;
60006;SDS011;45863;50.336;3.536;2022-12-29T05:54:11;11.25;;;2.22;;
60006;SDS011;45863;50.336;3.536;2022-12-29T05:56:37;13.38;;;2.63;;
60006;SDS011;45863;50.336;3.536;2022-12-29T05:59:02;12.85;;;2.40;;
60006;SDS011;45863;50.336;3.536;2022-12-29T06:01:27;13.77;;;2.92;;
60006;SDS011;45863;50.336;3.536;2022-12-29T06:03:52;11.88;;;2.97;;
60006;SDS011;45863;50.336;3.536;2022-12-29T06:06:18;14.68;;;3.60;;
60006;SDS011;45863;50.336;3.536;2022-12-29T06:08:43;21.48;;;3.00;;
60006;SDS011;45863;50.336;3.536;2022-12-29T06:11:08;8.05;;;2.20;;
60006;SDS011;45863;50.336;3.536;2022-12-29T06:13:33;13.77;;;2.30;;
60006;SDS011;45863;50.336;3.536;2022-12-29T06:15:59;18.10;;;2.78;;
60006;SDS011;45863;50.336;3.536;2022-12-29T06:18:24;12.38;;;2.10;;
60006;SDS011;45863;50.336;3.536;2022-12-29T06:20:49;19.77;;;2.83;;
60006;SDS011;45863;50.336;3.536;2022-12-29T06:23:15;18.80;;;3.13;;
60006;SDS011;45863;50.336;3.536;2022-12-29T06:25:41;15.57;;;2.80;;
60006;SDS011;45863;50.336;3.536;2022-12-29T06:28:06;13.27;;;2.70;;
60006;SDS011;45863;50.336;3.536;2022-12-29T06:30:32;12.52;;;2.42;;
60006;SDS011;45863;50.336;3.536;2022-12-29T06:32:58;18.95;;;3.08;;
60006;SDS011;45863;50.336;3.536;2022-12-29T06:35:23;16.10;;;2.70;;
60006;SDS011;45863;50.336;3.536;2022-12-29T06:37:48;17.27;;;3.05;;
60006;SDS011;45863;50.336;3.536;2022-12-29T06:40:14;15.50;;;3.17;;
60006;SDS011;45863;50.336;3.536;2022-12-29T06:42:39;19.23;;;2.70;;
60006;SDS011;45863;50.336;3.536;2022-12-29T06:45:04;16.58;;;2.72;;
60006;SDS011;45863;50.336;3.536;2022-12-29T06:47:29;12.70;;;2.67;;
60006;SDS011;45863;50.336;3.536;2022-12-29T06:49:55;18.15;;;3.17;;
60006;SDS011;45863;50.336;3.536;2022-12-29T06:52:20;15.52;;;3.13;;
60006;SDS011;45863;50.336;3.536;2022-12-29T06:54:45;16.20;;;2.13;;
60006;SDS011;45863;50.336;3.536;2022-12-29T06:57:10;17.30;;;2.95;;
60006;SDS011;45863;50.336;3.536;2022-12-29T06:59:36;22.48;;;3.83;;
60006;SDS011;45863;50.336;3.536;2022-12-29T07:02:01;12.77;;;1.98;;
60006;SDS011;45863;50.336;3.536;2022-12-29T07:04:29;14.70;;;2.65;;
60006;SDS011;45863;50.336;3.536;2022-12-29T07:06:54;16.55;;;2.78;;
60006;SDS011;45863;50.336;3.536;2022-12-29T07:09:19;18.35;;;2.92;;
60006;SDS011;45863;50.336;3.536;2022-12-29T07:11:45;19.73;;;3.28;;
60006;SDS011;45863;50.336;3.536;2022-12-29T07:14:10;13.07;;;3.03;;
60006;SDS011;45863;50.336;3.536;2022-12-29T07:16:36;10.10;;;2.53;;
60006;SDS011;45863;50.336;3.536;2022-12-29T07:19:02;19.42;;;2.72;;
60006;SDS011;45863;50.336;3.536;2022-12-29T07:21:27;14.68;;;2.28;;
60006;SDS011;45863;50.336;3.536;2022-12-29T07:23:53;15.43;;;2.55;;
60006;SDS011;45863;50.336;3.536;2022-12-29T07:26:18;15.50;;;3.20;;
60006;SDS011;45863;50.336;3.536;2022-12-29T07:28:43;17.67;;;2.15;;
60006;SDS011;45863;50.336;3.536;2022-12-29T07:31:15;20.50;;;2.72;;
60006;SDS011;45863;50.336;3.536;2022-12-29T07:33:41;10.45;;;2.15;;
60006;SDS011;45863;50.336;3.536;2022-12-29T07:36:06;15.73;;;2.95;;
60006;SDS011;45863;50.336;3.536;2022-12-29T07:38:32;13.45;;;2.97;;
60006;SDS011;45863;50.336;3.536;2022-12-29T07:40:57;15.90;;;2.75;;
60006;SDS011;45863;50.336;3.536;2022-12-29T07:43:23;18.73;;;2.45;;
60006;SDS011;45863;50.336;3.536;2022-12-29T07:45:48;15.82;;;2.97;;
60006;SDS011;45863;50.336;3.536;2022-12-29T07:48:13;13.93;;;2.40;;
60006;SDS011;45863;50.336;3.536;2022-12-29T07:50:38;18.08;;;3.40;;
60006;SDS011;45863;50.336;3.536;2022-12-29T07:53:04;14.35;;;2.33;;
60006;SDS011;45863;50.336;3.536;2022-12-29T07:55:29;11.50;;;2.33;;
60006;SDS011;45863;50.336;3.536;2022-12-29T07:57:55;15.05;;;2.58;;
60006;SDS011;45863;50.336;3.536;2022-12-29T08:00:20;17.45;;;3.20;;
60006;SDS011;45863;50.336;3.536;2022-12-29T08:02:46;14.18;;;3.15;;
60006;SDS011;45863;50.336;3.536;2022-12-29T08:05:11;11.10;;;2.67;;
60006;SDS011;45863;50.336;3.536;2022-12-29T08:07:36;15.00;;;3.00;;
60006;SDS011;45863;50.336;3.536;2022-12-29T08:10:02;16.65;;;3.90;;
60006;SDS011;45863;50.336;3.536;2022-12-29T08:12:27;14.00;;;2.08;;
60006;SDS011;45863;50.336;3.536;2022-12-29T08:14:52;15.40;;;2.90;;
60006;SDS011;45863;50.336;3.536;2022-12-29T08:17:18;15.25;;;3.20;;
60006;SDS011;45863;50.336;3.536;2022-12-29T08:19:43;16.63;;;2.50;;
60006;SDS011;45863;50.336;3.536;2022-12-29T08:22:08;15.60;;;2.47;;
60006;SDS011;45863;50.336;3.536;2022-12-29T08:24:33;18.80;;;3.45;;
60006;SDS011;45863;50.336;3.536;2022-12-29T08:26:59;17.80;;;2.85;;
60006;SDS011;45863;50.336;3.536;2022-12-29T08:29:24;12.38;;;2.72;;
60006;SDS011;45863;50.336;3.536;2022-12-29T08:31:49;13.82;;;2.28;;
60006;SDS011;45863;50.336;3.536;2022-12-29T08:34:14;12.93;;;2.53;;
60006;SDS011;45863;50.336;3.536;2022-12-29T08:36:39;16.80;;;3.00;;
60006;SDS011;45863;50.336;3.536;2022-12-29T08:39:05;14.80;;;2.20;;
60006;SDS011;45863;50.336;3.536;2022-12-29T08:41:30;14.10;;;3.25;;
60006;SDS011;45863;50.336;3.536;2022-12-29T08:43:55;13.43;;;2.80;;
60006;SDS011;45863;50.336;3.536;2022-12-29T08:46:21;12.23;;;2.83;;
60006;SDS011;45863;50.336;3.536;2022-12-29T08:48:46;14.82;;;2.88;;
60006;SDS011;45863;50.336;3.536;2022-12-29T08:51:11;16.80;;;2.42;;
60006;SDS011;45863;50.336;3.536;2022-12-29T08:53:36;15.38;;;4.00;;
60006;SDS011;45863;50.336;3.536;2022-12-29T08:56:02;17.65;;;3.10;;
60006;SDS011;45863;50.336;3.536;2022-12-29T08:58:27;16.48;;;3.08;;
60006;SDS011;45863;50.336;3.536;2022-12-29T09:00:53;18.27;;;3.42;;
60006;SDS011;45863;50.336;3.536;2022-12-29T09:03:18;18.70;;;3.28;;
60006;SDS011;45863;50.336;3.536;2022-12-29T09:05:46;18.02;;;3.55;;
60006;SDS011;45863;50.336;3.536;2022-12-29T09:08:12;15.88;;;3.25;;
60006;SDS011;45863;50.336;3.536;2022-12-29T09:10:37;23.30;;;3.65;;
60006;SDS011;45863;50.336;3.536;2022-12-29T09:13:03;20.02;;;3.60;;
60006;SDS011;45863;50.336;3.536;2022-12-29T09:15:28;11.10;;;2.45;;
60006;SDS011;45863;50.336;3.536;2022-12-29T09:17:53;14.30;;;2.97;;
60006;SDS011;45863;50.336;3.536;2022-12-29T09:20:20;17.60;;;2.65;;
60006;SDS011;45863;50.336;3.536;2022-12-29T09:22:46;18.33;;;3.30;;
60006;SDS011;45863;50.336;3.536;2022-12-29T09:25:11;17.75;;;2.97;;
60006;SDS011;45863;50.336;3.536;2022-12-29T09:27:37;14.05;;;3.03;;
60006;SDS011;45863;50.336;3.536;2022-12-29T09:30:03;19.77;;;4.13;;
60006;SDS011;45863;50.336;3.536;2022-12-29T09:32:28;19.83;;;3.15;;
60006;SDS011;45863;50.336;3.536;2022-12-29T09:34:54;16.40;;;3.20;;
60006;SDS011;45863;50.336;3.536;2022-12-29T09:37:19;12.37;;;2.40;;
60006;SDS011;45863;50.336;3.536;2022-12-29T09:39:44;15.18;;;3.00;;
60006;SDS011;45863;50.336;3.536;2022-12-29T09:42:14;15.95;;;2.80;;
60006;SDS011;45863;50.336;3.536;2022-12-29T09:47:10;18.92;;;3.22;;
60006;SDS011;45863;50.336;3.536;2022-12-29T09:49:43;12.18;;;3.30;;
60006;SDS011;45863;50.336;3.536;2022-12-29T09:52:14;20.23;;;3.28;;
60006;SDS011;45863;50.336;3.536;2022-12-29T09:57:27;18.75;;;3.47;;
60006;SDS011;45863;50.336;3.536;2022-12-29T09:59:55;20.58;;;3.30;;
60006;SDS011;45863;50.336;3.536;2022-12-29T10:02:32;14.38;;;3.10;;
60006;SDS011;45863;50.336;3.536;2022-12-29T10:04:58;17.40;;;3.25;;
60006;SDS011;45863;50.336;3.536;2022-12-29T10:10:09;14.40;;;3.22;;
60006;SDS011;45863;50.336;3.536;2022-12-29T10:15:40;18.63;;;3.13;;
60006;SDS011;45863;50.336;3.536;2022-12-29T10:20:55;17.23;;;3.83;;
60006;SDS011;45863;50.336;3.536;2022-12-29T10:23:33;20.38;;;3.30;;
60006;SDS011;45863;50.336;3.536;2022-12-29T10:25:59;17.50;;;3.33;;
60006;SDS011;45863;50.336;3.536;2022-12-29T10:31:17;14.98;;;3.13;;
60006;SDS011;45863;50.336;3.536;2022-12-29T10:33:44;14.50;;;2.33;;
60006;SDS011;45863;50.336;3.536;2022-12-29T10:36:15;17.80;;;3.50;;
60006;SDS011;45863;50.336;3.536;2022-12-29T10:38:48;15.73;;;2.95;;
60006;SDS011;45863;50.336;3.536;2022-12-29T10:44:15;20.02;;;2.80;;
60006;SDS011;45863;50.336;3.536;2022-12-29T10:46:42;16.73;;;3.20;;
60006;SDS011;45863;50.336;3.536;2022-12-29T10:49:14;17.38;;;3.60;;
60006;SDS011;45863;50.336;3.536;2022-12-29T10:51:41;14.65;;;2.65;;
60006;SDS011;45863;50.336;3.536;2022-12-29T10:54:11;16.63;;;2.47;;
60006;SDS011;45863;50.336;3.536;2022-12-29T10:56:40;16.58;;;2.78;;
60006;SDS011;45863;50.336;3.536;2022-12-29T10:59:51;15.18;;;2.78;;
60006;SDS011;45863;50.336;3.536;2022-12-29T11:01:59;19.02;;;3.42;;
60006;SDS011;45863;50.336;3.536;2022-12-29T11:05:15;14.05;;;3.25;;
60006;SDS011;45863;50.336;3.536;2022-12-29T11:07:11;19.92;;;4.18;;
60006;SDS011;45863;50.336;3.536;2022-12-29T11:09:38;16.70;;;3.22;;
60006;SDS011;45863;50.336;3.536;2022-12-29T11:12:21;19.17;;;4.13;;
60006;SDS011;45863;50.336;3.536;2022-12-29T11:14:46;19.67;;;2.95;;
60006;SDS011;45863;50.336;3.536;2022-12-29T11:17:14;16.80;;;3.45;;
60006;SDS011;45863;50.336;3.536;2022-12-29T11:19:40;16.63;;;3.10;;
60006;SDS011;45863;50.336;3.536;2022-12-29T11:22:20;22.85;;;3.85;;
60006;SDS011;45863;50.336;3.536;2022-12-29T11:24:46;13.45;;;3.45;;
60006;SDS011;45863;50.336;3.536;2022-12-29T11:27:22;18.30;;;3.90;;
60006;SDS011;45863;50.336;3.536;2022-12-29T11:29:49;17.23;;;3.15;;
60006;SDS011;45863;50.336;3.536;2022-12-29T11:34:42;20.45;;;3.80;;
60006;SDS011;45863;50.336;3.536;2022-12-29T11:39:40;17.75;;;3.47;;
60006;SDS011;45863;50.336;3.536;2022-12-29T11:42:06;17.50;;;3.33;;
60006;SDS011;45863;50.336;3.536;2022-12-29T11:47:03;14.75;;;3.08;;
60006;SDS011;45863;50.336;3.536;2022-12-29T11:49:28;17.67;;;3.35;;
60006;SDS011;45863;50.336;3.536;2022-12-29T11:51:54;16.23;;;3.78;;
60006;SDS011;45863;50.336;3.536;2022-12-29T11:56:46;19.05;;;3.33;;
60006;SDS011;45863;50.336;3.536;2022-12-29T12:02:03;18.40;;;4.15;;
60006;SDS011;45863;50.336;3.536;2022-12-29T12:04:36;22.52;;;3.42;;
60006;SDS011;45863;50.336;3.536;2022-12-29T12:07:04;21.95;;;4.25;;
60006;SDS011;45863;50.336;3.536;2022-12-29T12:09:35;17.23;;;3.53;;
60006;SDS011;45863;50.336;3.536;2022-12-29T12:12:05;18.55;;;3.25;;
60006;SDS011;45863;50.336;3.536;2022-12-29T12:14:38;14.68;;;2.83;;
60006;SDS011;45863;50.336;3.536;2022-12-29T12:17:09;21.13;;;3.20;;
60006;SDS011;45863;50.336;3.536;2022-12-29T12:19:38;14.38;;;2.83;;
60006;SDS011;45863;50.336;3.536;2022-12-29T12:24:54;15.43;;;3.60;;
60006;SDS011;45863;50.336;3.536;2022-12-29T12:27:24;22.67;;;4.03;;
60006;SDS011;45863;50.336;3.536;2022-12-29T12:35:13;21.48;;;3.20;;
60006;SDS011;45863;50.336;3.536;2022-12-29T12:42:36;14.90;;;3.40;;
60006;SDS011;45863;50.336;3.536;2022-12-29T12:53:26;24.88;;;3.80;;
60006;SDS011;45863;50.336;3.536;2022-12-29T13:01:29;25.70;;;3.45;;
60006;SDS011;45863;50.336;3.536;2022-12-29T13:20:02;18.45;;;3.53;;
60006;SDS011;45863;50.336;3.536;2022-12-29T13:22:34;16.00;;;3.90;;
60006;SDS011;45863;50.336;3.536;2022-12-29T13:27:43;20.52;;;3.75;;
60006;SDS011;45863;50.336;3.536;2022-12-29T13:30:26;22.85;;;3.88;;
60006;SDS011;45863;50.336;3.536;2022-12-29T13:32:56;15.57;;;3.78;;
60006;SDS011;45863;50.336;3.536;2022-12-29T13:38:08;18.98;;;4.07;;
60006;SDS011;45863;50.336;3.536;2022-12-29T13:40:37;22.08;;;3.50;;
60006;SDS011;45863;50.336;3.536;2022-12-29T13:43:04;20.90;;;3.42;;
60006;SDS011;45863;50.336;3.536;2022-12-29T13:45:30;23.35;;;4.32;;
60006;SDS011;45863;50.336;3.536;2022-12-29T13:50:22;22.90;;;4.15;;
60006;SDS011;45863;50.336;3.536;2022-12-29T13:52:55;33.28;;;4.40;;
60006;SDS011;45863;50.336;3.536;2022-12-29T13:55:32;22.58;;;4.10;;
60006;SDS011;45863;50.336;3.536;2022-12-29T14:00:25;24.42;;;4.13;;
60006;SDS011;45863;50.336;3.536;2022-12-29T14:03:11;21.00;;;3.97;;
60006;SDS011;45863;50.336;3.536;2022-12-29T14:05:40;24.23;;;4.47;;
60006;SDS011;45863;50.336;3.536;2022-12-29T14:08:14;27.40;;;4.63;;
60006;SDS011;45863;50.336;3.536;2022-12-29T14:10:50;29.15;;;4.60;;
60006;SDS011;45863;50.336;3.536;2022-12-29T14:13:23;21.67;;;4.18;;
60006;SDS011;45863;50.336;3.536;2022-12-29T14:15:57;24.58;;;3.72;;
60006;SDS011;45863;50.336;3.536;2022-12-29T14:18:26;29.27;;;4.22;;
60006;SDS011;45863;50.336;3.536;2022-12-29T14:20:53;21.05;;;4.35;;
60006;SDS011;45863;50.336;3.536;2022-12-29T14:28:22;18.80;;;4.63;;
60006;SDS011;45863;50.336;3.536;2022-12-29T14:30:52;25.33;;;4.72;;
60006;SDS011;45863;50.336;3.536;2022-12-29T14:33:18;22.40;;;4.38;;
60006;SDS011;45863;50.336;3.536;2022-12-29T14:35:45;27.73;;;4.93;;
60006;SDS011;45863;50.336;3.536;2022-12-29T14:38:21;26.23;;;4.55;;
60006;SDS011;45863;50.336;3.536;2022-12-29T14:40:48;24.48;;;4.60;;
60006;SDS011;45863;50.336;3.536;2022-12-29T14:43:17;19.33;;;3.88;;
60006;SDS011;45863;50.336;3.536;2022-12-29T14:45:43;19.42;;;4.70;;
60006;SDS011;45863;50.336;3.536;2022-12-29T14:48:30;28.73;;;6.07;;
60006;SDS011;45863;50.336;3.536;2022-12-29T14:50:57;24.85;;;6.25;;
60006;SDS011;45863;50.336;3.536;2022-12-29T14:56:08;22.92;;;3.90;;
60006;SDS011;45863;50.336;3.536;2022-12-29T14:59:16;20.95;;;3.88;;
60006;SDS011;45863;50.336;3.536;2022-12-29T15:01:34;27.65;;;4.05;;
60006;SDS011;45863;50.336;3.536;2022-12-29T15:04:06;18.48;;;3.88;;
60006;SDS011;45863;50.336;3.536;2022-12-29T15:06:38;21.08;;;3.28;;
60006;SDS011;45863;50.336;3.536;2022-12-29T15:11:52;21.00;;;3.22;;
60006;SDS011;45863;50.336;3.536;2022-12-29T15:14:26;17.25;;;3.33;;
60006;SDS011;45863;50.336;3.536;2022-12-29T15:16:53;20.20;;;3.45;;
60006;SDS011;45863;50.336;3.536;2022-12-29T15:19:25;21.42;;;3.72;;
60006;SDS011;45863;50.336;3.536;2022-12-29T15:21:50;23.15;;;5.55;;
60006;SDS011;45863;50.336;3.536;2022-12-29T15:24:17;20.23;;;4.30;;
60006;SDS011;45863;50.336;3.536;2022-12-29T15:26:44;18.95;;;3.08;;
60006;SDS011;45863;50.336;3.536;2022-12-29T15:31:54;22.65;;;3.03;;
60006;SDS011;45863;50.336;3.536;2022-12-29T15:34:21;17.55;;;2.85;;
60006;SDS011;45863;50.336;3.536;2022-12-29T15:36:46;19.30;;;2.58;;
60006;SDS011;45863;50.336;3.536;2022-12-29T15:39:18;18.98;;;3.30;;
60006;SDS011;45863;50.336;3.536;2022-12-29T15:41:45;19.30;;;2.72;;
60006;SDS011;45863;50.336;3.536;2022-12-29T15:44:43;21.95;;;3.35;;
60006;SDS011;45863;50.336;3.536;2022-12-29T15:49:37;17.27;;;3.10;;
60006;SDS011;45863;50.336;3.536;2022-12-29T15:52:06;12.48;;;2.55;;
60006;SDS011;45863;50.336;3.536;2022-12-29T15:54:31;16.58;;;2.85;;
60006;SDS011;45863;50.336;3.536;2022-12-29T15:56:56;13.82;;;3.00;;
60006;SDS011;45863;50.336;3.536;2022-12-29T15:59:26;16.50;;;3.50;;
60006;SDS011;45863;50.336;3.536;2022-12-29T16:01:52;11.82;;;2.88;;
60006;SDS011;45863;50.336;3.536;2022-12-29T16:04:18;19.20;;;3.28;;
60006;SDS011;45863;50.336;3.536;2022-12-29T16:09:34;13.60;;;3.60;;
60006;SDS011;45863;50.336;3.536;2022-12-29T16:12:06;16.75;;;4.38;;
60006;SDS011;45863;50.336;3.536;2022-12-29T16:14:36;14.55;;;3.38;;
60006;SDS011;45863;50.336;3.536;2022-12-29T16:17:05;14.40;;;3.33;;
60006;SDS011;45863;50.336;3.536;2022-12-29T16:19:37;11.45;;;2.75;;
60006;SDS011;45863;50.336;3.536;2022-12-29T16:22:08;17.20;;;3.55;;
60006;SDS011;45863;50.336;3.536;2022-12-29T16:24:36;14.52;;;3.50;;
60006;SDS011;45863;50.336;3.536;2022-12-29T16:29:31;18.25;;;4.97;;
60006;SDS011;45863;50.336;3.536;2022-12-29T16:31:57;20.75;;;4.38;;
60006;SDS011;45863;50.336;3.536;2022-12-29T16:34:31;15.05;;;3.88;;
60006;SDS011;45863;50.336;3.536;2022-12-29T16:37:01;21.50;;;4.60;;
60006;SDS011;45863;50.336;3.536;2022-12-29T16:41:53;16.38;;;4.43;;
60006;SDS011;45863;50.336;3.536;2022-12-29T16:44:20;18.40;;;4.20;;
60006;SDS011;45863;50.336;3.536;2022-12-29T16:47:05;15.98;;;4.40;;
60006;SDS011;45863;50.336;3.536;2022-12-29T16:49:41;18.60;;;4.32;;
60006;SDS011;45863;50.336;3.536;2022-12-29T16:52:41;26.23;;;5.10;;
60006;SDS011;45863;50.336;3.536;2022-12-29T16:55:00;21.23;;;4.03;;
60006;SDS011;45863;50.336;3.536;2022-12-29T16:57:30;19.27;;;3.97;;
60006;SDS011;45863;50.336;3.536;2022-12-29T16:59:58;22.27;;;4.13;;
60006;SDS011;45863;50.336;3.536;2022-12-29T17:02:24;21.63;;;5.43;;
60006;SDS011;45863;50.336;3.536;2022-12-29T17:04:50;22.15;;;4.45;;
60006;SDS011;45863;50.336;3.536;2022-12-29T17:07:21;21.67;;;4.70;;
60006;SDS011;45863;50.336;3.536;2022-12-29T17:09:47;21.52;;;5.15;;